sensor_id;sensor_type;location;lat;lon;timestamp;temperature;humidity
51841;DHT22;37888;53.246;6.658;2023-12-28T00:01:20;8.50;99.90
51841;DHT22;37888;53.246;6.658;2023-12-28T00:03:45;8.50;99.90
51841;DHT22;37888;53.246;6.658;2023-12-28T00:06:11;8.50;99.90
51841;DHT22;37888;53.246;6.658;2023-12-28T00:08:37;8.50;99.90
51841;DHT22;37888;53.246;6.658;2023-12-28T00:11:02;8.60;99.90
51841;DHT22;37888;53.246;6.658;2023-12-28T00:13:28;8.60;99.90
51841;DHT22;37888;53.246;6.658;2023-12-28T00:15:54;8.60;99.90
51841;DHT22;37888;53.246;6.658;2023-12-28T00:18:19;8.60;99.90
51841;DHT22;37888;53.246;6.658;2023-12-28T00:20:45;8.50;99.90
51841;DHT22;37888;53.246;6.658;2023-12-28T00:23:10;8.50;99.90
51841;DHT22;37888;53.246;6.658;2023-12-28T00:25:36;8.50;99.90
51841;DHT22;37888;53.246;6.658;2023-12-28T00:28:01;8.60;99.90
51841;DHT22;37888;53.246;6.658;2023-12-28T00:30:27;8.60;99.90
51841;DHT22;37888;53.246;6.658;2023-12-28T00:32:53;8.60;99.90
51841;DHT22;37888;53.246;6.658;2023-12-28T00:35:19;8.50;99.90
51841;DHT22;37888;53.246;6.658;2023-12-28T00:37:45;8.50;99.90
51841;DHT22;37888;53.246;6.658;2023-12-28T00:40:10;8.40;99.90
51841;DHT22;37888;53.246;6.658;2023-12-28T00:42:36;8.50;99.90
51841;DHT22;37888;53.246;6.658;2023-12-28T00:45:02;8.40;99.90
51841;DHT22;37888;53.246;6.658;2023-12-28T00:47:28;8.40;99.90
51841;DHT22;37888;53.246;6.658;2023-12-28T00:49:53;8.40;99.90
51841;DHT22;37888;53.246;6.658;2023-12-28T00:52:19;8.40;99.90
51841;DHT22;37888;53.246;6.658;2023-12-28T00:54:45;8.40;99.90
51841;DHT22;37888;53.246;6.658;2023-12-28T00:57:10;8.40;99.90
51841;DHT22;37888;53.246;6.658;2023-12-28T00:59:36;8.30;99.90
51841;DHT22;37888;53.246;6.658;2023-12-28T01:02:01;8.40;99.90
51841;DHT22;37888;53.246;6.658;2023-12-28T01:04:27;8.40;99.90
51841;DHT22;37888;53.246;6.658;2023-12-28T01:06:53;8.40;99.90
51841;DHT22;37888;53.246;6.658;2023-12-28T01:09:18;8.50;99.90
51841;DHT22;37888;53.246;6.658;2023-12-28T01:11:44;8.40;99.90
51841;DHT22;37888;53.246;6.658;2023-12-28T01:14:10;8.40;99.90
51841;DHT22;37888;53.246;6.658;2023-12-28T01:16:35;8.50;99.90
51841;DHT22;37888;53.246;6.658;2023-12-28T01:19:01;8.40;99.90
51841;DHT22;37888;53.246;6.658;2023-12-28T01:21:27;8.50;99.90
51841;DHT22;37888;53.246;6.658;2023-12-28T01:23:54;8.40;99.90
51841;DHT22;37888;53.246;6.658;2023-12-28T01:26:20;8.40;99.90
51841;DHT22;37888;53.246;6.658;2023-12-28T01:28:45;8.50;99.90
51841;DHT22;37888;53.246;6.658;2023-12-28T01:31:11;8.50;99.90
51841;DHT22;37888;53.246;6.658;2023-12-28T01:33:37;8.40;99.90
51841;DHT22;37888;53.246;6.658;2023-12-28T01:36:02;8.40;99.90
51841;DHT22;37888;53.246;6.658;2023-12-28T01:38:28;8.40;99.90
51841;DHT22;37888;53.246;6.658;2023-12-28T01:40:54;8.40;99.90
51841;DHT22;37888;53.246;6.658;2023-12-28T01:43:19;8.30;99.90
51841;DHT22;37888;53.246;6.658;2023-12-28T01:45:45;8.30;99.90
51841;DHT22;37888;53.246;6.658;2023-12-28T01:48:11;8.30;99.90
51841;DHT22;37888;53.246;6.658;2023-12-28T01:50:38;8.40;99.90
51841;DHT22;37888;53.246;6.658;2023-12-28T01:53:04;8.40;99.90
51841;DHT22;37888;53.246;6.658;2023-12-28T01:55:30;8.40;99.90
51841;DHT22;37888;53.246;6.658;2023-12-28T01:57:56;8.50;99.90
51841;DHT22;37888;53.246;6.658;2023-12-28T02:00:22;8.40;99.90
51841;DHT22;37888;53.246;6.658;2023-12-28T02:02:48;8.30;99.90
51841;DHT22;37888;53.246;6.658;2023-12-28T02:05:14;8.30;99.90
51841;DHT22;37888;53.246;6.658;2023-12-28T02:07:40;8.30;99.90
51841;DHT22;37888;53.246;6.658;2023-12-28T02:10:06;8.30;99.90
51841;DHT22;37888;53.246;6.658;2023-12-28T02:12:32;8.30;99.90
51841;DHT22;37888;53.246;6.658;2023-12-28T02:14:58;8.40;99.90
51841;DHT22;37888;53.246;6.658;2023-12-28T02:17:28;8.40;99.90
51841;DHT22;37888;53.246;6.658;2023-12-28T02:19:55;8.30;99.90
51841;DHT22;37888;53.246;6.658;2023-12-28T02:22:23;8.30;99.90
51841;DHT22;37888;53.246;6.658;2023-12-28T02:25:10;8.30;99.90
51841;DHT22;37888;53.246;6.658;2023-12-28T02:27:38;8.30;99.90
51841;DHT22;37888;53.246;6.658;2023-12-28T02:30:04;8.40;99.90
51841;DHT22;37888;53.246;6.658;2023-12-28T02:33:18;8.30;99.90
51841;DHT22;37888;53.246;6.658;2023-12-28T02:35:23;8.30;99.90
51841;DHT22;37888;53.246;6.658;2023-12-28T02:37:53;8.40;99.90
51841;DHT22;37888;53.246;6.658;2023-12-28T02:40:20;8.30;99.90
51841;DHT22;37888;53.246;6.658;2023-12-28T02:42:46;8.30;99.90
51841;DHT22;37888;53.246;6.658;2023-12-28T02:45:12;8.40;99.90
51841;DHT22;37888;53.246;6.658;2023-12-28T02:47:38;8.30;99.90
51841;DHT22;37888;53.246;6.658;2023-12-28T02:50:03;8.40;99.90
51841;DHT22;37888;53.246;6.658;2023-12-28T02:52:29;8.30;99.90
51841;DHT22;37888;53.246;6.658;2023-12-28T02:54:54;8.50;99.90
51841;DHT22;37888;53.246;6.658;2023-12-28T02:57:20;8.50;99.90
51841;DHT22;37888;53.246;6.658;2023-12-28T02:59:46;8.50;99.90
51841;DHT22;37888;53.246;6.658;2023-12-28T03:02:11;8.60;99.90
51841;DHT22;37888;53.246;6.658;2023-12-28T03:04:37;8.50;99.90
51841;DHT22;37888;53.246;6.658;2023-12-28T03:07:03;8.60;99.90
51841;DHT22;37888;53.246;6.658;2023-12-28T03:09:29;8.70;99.90
51841;DHT22;37888;53.246;6.658;2023-12-28T03:11:55;8.60;99.90
51841;DHT22;37888;53.246;6.658;2023-12-28T03:14:20;8.70;99.90
51841;DHT22;37888;53.246;6.658;2023-12-28T03:16:46;8.90;99.90
51841;DHT22;37888;53.246;6.658;2023-12-28T03:36:18;9.30;99.90
51841;DHT22;37888;53.246;6.658;2023-12-28T03:38:44;9.20;99.90
51841;DHT22;37888;53.246;6.658;2023-12-28T03:41:19;9.30;99.90
51841;DHT22;37888;53.246;6.658;2023-12-28T03:43:45;9.30;99.90
51841;DHT22;37888;53.246;6.658;2023-12-28T03:46:11;9.20;99.90
51841;DHT22;37888;53.246;6.658;2023-12-28T03:48:37;9.20;99.90
51841;DHT22;37888;53.246;6.658;2023-12-28T03:51:04;9.30;99.90
51841;DHT22;37888;53.246;6.658;2023-12-28T03:53:30;9.30;99.90
51841;DHT22;37888;53.246;6.658;2023-12-28T03:55:59;9.30;99.90
51841;DHT22;37888;53.246;6.658;2023-12-28T03:58:25;9.30;99.90
51841;DHT22;37888;53.246;6.658;2023-12-28T04:00:50;9.30;99.90
51841;DHT22;37888;53.246;6.658;2023-12-28T04:03:16;9.30;99.90
51841;DHT22;37888;53.246;6.658;2023-12-28T04:05:45;9.30;99.90
51841;DHT22;37888;53.246;6.658;2023-12-28T04:08:10;9.30;99.90
51841;DHT22;37888;53.246;6.658;2023-12-28T04:10:36;9.30;99.90
51841;DHT22;37888;53.246;6.658;2023-12-28T04:13:04;9.40;99.90
51841;DHT22;37888;53.246;6.658;2023-12-28T04:15:30;9.30;99.90
51841;DHT22;37888;53.246;6.658;2023-12-28T04:17:56;9.30;99.90
51841;DHT22;37888;53.246;6.658;2023-12-28T04:20:22;9.40;99.90
51841;DHT22;37888;53.246;6.658;2023-12-28T04:22:47;9.50;99.90
51841;DHT22;37888;53.246;6.658;2023-12-28T04:25:13;9.40;99.90
51841;DHT22;37888;53.246;6.658;2023-12-28T04:27:39;9.50;99.90
51841;DHT22;37888;53.246;6.658;2023-12-28T04:30:05;9.50;99.90
51841;DHT22;37888;53.246;6.658;2023-12-28T04:32:31;9.50;99.90
51841;DHT22;37888;53.246;6.658;2023-12-28T04:34:57;9.50;99.90
51841;DHT22;37888;53.246;6.658;2023-12-28T04:37:23;9.50;99.90
51841;DHT22;37888;53.246;6.658;2023-12-28T04:39:49;9.50;99.90
51841;DHT22;37888;53.246;6.658;2023-12-28T04:42:14;9.50;99.90
51841;DHT22;37888;53.246;6.658;2023-12-28T04:44:40;9.50;99.90
51841;DHT22;37888;53.246;6.658;2023-12-28T04:47:05;9.50;99.90
51841;DHT22;37888;53.246;6.658;2023-12-28T04:49:31;9.50;99.90
51841;DHT22;37888;53.246;6.658;2023-12-28T04:51:57;9.50;99.90
51841;DHT22;37888;53.246;6.658;2023-12-28T04:54:23;9.40;99.90
51841;DHT22;37888;53.246;6.658;2023-12-28T04:56:48;9.60;99.90
51841;DHT22;37888;53.246;6.658;2023-12-28T04:59:14;9.50;99.90
51841;DHT22;37888;53.246;6.658;2023-12-28T05:01:43;9.60;99.90
51841;DHT22;37888;53.246;6.658;2023-12-28T05:04:09;9.60;99.90
51841;DHT22;37888;53.246;6.658;2023-12-28T05:06:34;9.60;99.90
51841;DHT22;37888;53.246;6.658;2023-12-28T05:09:00;9.70;99.90
51841;DHT22;37888;53.246;6.658;2023-12-28T05:11:26;9.70;99.90
51841;DHT22;37888;53.246;6.658;2023-12-28T05:13:52;9.70;99.90
51841;DHT22;37888;53.246;6.658;2023-12-28T05:16:17;9.60;99.90
51841;DHT22;37888;53.246;6.658;2023-12-28T05:18:43;9.80;99.90
51841;DHT22;37888;53.246;6.658;2023-12-28T05:21:09;9.80;99.90
51841;DHT22;37888;53.246;6.658;2023-12-28T05:23:34;9.80;99.90
51841;DHT22;37888;53.246;6.658;2023-12-28T05:26:00;9.70;99.90
51841;DHT22;37888;53.246;6.658;2023-12-28T05:28:25;9.70;99.90
51841;DHT22;37888;53.246;6.658;2023-12-28T05:30:51;9.60;99.90
51841;DHT22;37888;53.246;6.658;2023-12-28T05:33:17;9.70;99.90
51841;DHT22;37888;53.246;6.658;2023-12-28T05:35:42;9.70;99.90
51841;DHT22;37888;53.246;6.658;2023-12-28T05:38:08;9.60;99.90
51841;DHT22;37888;53.246;6.658;2023-12-28T05:40:33;9.70;99.90
51841;DHT22;37888;53.246;6.658;2023-12-28T05:42:59;9.70;99.90
51841;DHT22;37888;53.246;6.658;2023-12-28T05:45:24;9.60;99.90
51841;DHT22;37888;53.246;6.658;2023-12-28T05:47:50;9.70;99.90
51841;DHT22;37888;53.246;6.658;2023-12-28T05:50:16;9.70;99.90
51841;DHT22;37888;53.246;6.658;2023-12-28T05:52:41;9.70;99.90
51841;DHT22;37888;53.246;6.658;2023-12-28T05:55:07;9.70;99.90
51841;DHT22;37888;53.246;6.658;2023-12-28T05:57:33;9.70;99.90
51841;DHT22;37888;53.246;6.658;2023-12-28T05:59:59;9.70;99.90
51841;DHT22;37888;53.246;6.658;2023-12-28T06:02:24;9.70;99.90
51841;DHT22;37888;53.246;6.658;2023-12-28T06:04:50;9.80;99.90
51841;DHT22;37888;53.246;6.658;2023-12-28T06:07:15;9.80;99.90
51841;DHT22;37888;53.246;6.658;2023-12-28T06:09:41;9.70;99.90
51841;DHT22;37888;53.246;6.658;2023-12-28T06:12:07;9.70;99.90
51841;DHT22;37888;53.246;6.658;2023-12-28T06:14:32;9.70;99.90
51841;DHT22;37888;53.246;6.658;2023-12-28T06:16:58;9.70;99.90
51841;DHT22;37888;53.246;6.658;2023-12-28T06:19:24;9.70;99.90
51841;DHT22;37888;53.246;6.658;2023-12-28T06:21:49;9.60;99.90
51841;DHT22;37888;53.246;6.658;2023-12-28T06:24:15;9.70;99.90
51841;DHT22;37888;53.246;6.658;2023-12-28T06:26:44;9.70;99.90
51841;DHT22;37888;53.246;6.658;2023-12-28T06:29:10;9.80;99.90
51841;DHT22;37888;53.246;6.658;2023-12-28T06:31:36;9.70;99.90
51841;DHT22;37888;53.246;6.658;2023-12-28T06:34:02;9.80;99.90
51841;DHT22;37888;53.246;6.658;2023-12-28T06:36:28;9.80;99.90
51841;DHT22;37888;53.246;6.658;2023-12-28T06:38:53;9.80;99.90
51841;DHT22;37888;53.246;6.658;2023-12-28T06:41:19;9.80;99.90
51841;DHT22;37888;53.246;6.658;2023-12-28T06:43:45;9.80;99.90
51841;DHT22;37888;53.246;6.658;2023-12-28T06:46:10;9.80;99.90
51841;DHT22;37888;53.246;6.658;2023-12-28T06:48:37;9.80;99.90
51841;DHT22;37888;53.246;6.658;2023-12-28T06:51:09;9.80;99.90
51841;DHT22;37888;53.246;6.658;2023-12-28T06:53:34;9.80;99.90
51841;DHT22;37888;53.246;6.658;2023-12-28T06:56:00;9.80;99.90
51841;DHT22;37888;53.246;6.658;2023-12-28T06:58:25;9.90;99.90
51841;DHT22;37888;53.246;6.658;2023-12-28T07:00:51;9.80;99.90
51841;DHT22;37888;53.246;6.658;2023-12-28T07:03:17;9.90;99.90
51841;DHT22;37888;53.246;6.658;2023-12-28T07:05:42;9.80;99.90
51841;DHT22;37888;53.246;6.658;2023-12-28T07:08:08;9.90;99.90
51841;DHT22;37888;53.246;6.658;2023-12-28T07:10:34;9.90;99.90
51841;DHT22;37888;53.246;6.658;2023-12-28T07:12:59;9.80;99.90
51841;DHT22;37888;53.246;6.658;2023-12-28T07:15:25;10.00;99.90
51841;DHT22;37888;53.246;6.658;2023-12-28T07:17:51;9.90;99.90
51841;DHT22;37888;53.246;6.658;2023-12-28T07:20:16;9.90;99.90
51841;DHT22;37888;53.246;6.658;2023-12-28T07:22:42;9.90;99.90
51841;DHT22;37888;53.246;6.658;2023-12-28T07:25:08;9.90;99.90
51841;DHT22;37888;53.246;6.658;2023-12-28T07:27:34;10.00;99.90
51841;DHT22;37888;53.246;6.658;2023-12-28T07:29:59;10.00;99.90
51841;DHT22;37888;53.246;6.658;2023-12-28T07:32:25;10.00;99.90
51841;DHT22;37888;53.246;6.658;2023-12-28T07:34:52;9.90;99.90
51841;DHT22;37888;53.246;6.658;2023-12-28T07:37:18;9.90;99.90
51841;DHT22;37888;53.246;6.658;2023-12-28T07:39:43;9.90;99.90
51841;DHT22;37888;53.246;6.658;2023-12-28T07:42:09;9.80;99.90
51841;DHT22;37888;53.246;6.658;2023-12-28T07:44:35;9.80;99.90
51841;DHT22;37888;53.246;6.658;2023-12-28T07:47:00;9.80;99.90
51841;DHT22;37888;53.246;6.658;2023-12-28T07:49:27;9.90;99.90
51841;DHT22;37888;53.246;6.658;2023-12-28T07:51:53;9.80;99.90
51841;DHT22;37888;53.246;6.658;2023-12-28T07:54:18;9.80;99.90
51841;DHT22;37888;53.246;6.658;2023-12-28T07:56:44;9.80;99.90
51841;DHT22;37888;53.246;6.658;2023-12-28T07:59:09;9.80;99.90
51841;DHT22;37888;53.246;6.658;2023-12-28T08:01:35;9.90;99.90
51841;DHT22;37888;53.246;6.658;2023-12-28T08:04:01;9.90;99.90
51841;DHT22;37888;53.246;6.658;2023-12-28T08:06:28;9.90;99.90
51841;DHT22;37888;53.246;6.658;2023-12-28T08:08:54;9.90;99.90
51841;DHT22;37888;53.246;6.658;2023-12-28T08:11:20;9.90;99.90
51841;DHT22;37888;53.246;6.658;2023-12-28T08:13:45;10.00;99.90
51841;DHT22;37888;53.246;6.658;2023-12-28T08:16:12;9.90;99.90
51841;DHT22;37888;53.246;6.658;2023-12-28T08:18:37;10.00;99.90
51841;DHT22;37888;53.246;6.658;2023-12-28T08:21:03;10.10;99.90
51841;DHT22;37888;53.246;6.658;2023-12-28T08:23:29;10.10;99.90
51841;DHT22;37888;53.246;6.658;2023-12-28T08:25:54;10.10;99.90
51841;DHT22;37888;53.246;6.658;2023-12-28T08:28:20;10.10;99.90
51841;DHT22;37888;53.246;6.658;2023-12-28T08:30:46;10.20;99.90
51841;DHT22;37888;53.246;6.658;2023-12-28T08:33:11;10.20;99.90
51841;DHT22;37888;53.246;6.658;2023-12-28T08:35:37;10.20;99.90
51841;DHT22;37888;53.246;6.658;2023-12-28T08:38:03;10.20;99.90
51841;DHT22;37888;53.246;6.658;2023-12-28T08:40:28;10.20;99.90
51841;DHT22;37888;53.246;6.658;2023-12-28T08:42:54;10.20;99.90
51841;DHT22;37888;53.246;6.658;2023-12-28T08:45:19;10.20;99.90
51841;DHT22;37888;53.246;6.658;2023-12-28T08:47:45;10.30;99.90
51841;DHT22;37888;53.246;6.658;2023-12-28T08:50:11;10.30;99.90
51841;DHT22;37888;53.246;6.658;2023-12-28T08:52:36;10.20;99.90
51841;DHT22;37888;53.246;6.658;2023-12-28T08:55:02;10.20;99.90
51841;DHT22;37888;53.246;6.658;2023-12-28T08:57:28;10.30;99.90
51841;DHT22;37888;53.246;6.658;2023-12-28T08:59:53;10.30;99.90
51841;DHT22;37888;53.246;6.658;2023-12-28T09:02:19;10.30;99.90
51841;DHT22;37888;53.246;6.658;2023-12-28T09:04:45;10.30;99.90
51841;DHT22;37888;53.246;6.658;2023-12-28T09:07:10;10.30;99.90
51841;DHT22;37888;53.246;6.658;2023-12-28T09:09:36;10.30;99.90
51841;DHT22;37888;53.246;6.658;2023-12-28T09:12:02;10.40;99.90
51841;DHT22;37888;53.246;6.658;2023-12-28T09:14:27;10.40;99.90
51841;DHT22;37888;53.246;6.658;2023-12-28T09:16:53;10.40;99.90
51841;DHT22;37888;53.246;6.658;2023-12-28T09:19:19;10.40;99.90
51841;DHT22;37888;53.246;6.658;2023-12-28T09:21:44;10.40;99.90
51841;DHT22;37888;53.246;6.658;2023-12-28T09:24:10;10.40;99.90
51841;DHT22;37888;53.246;6.658;2023-12-28T09:26:35;10.50;99.90
51841;DHT22;37888;53.246;6.658;2023-12-28T09:29:01;10.50;99.90
51841;DHT22;37888;53.246;6.658;2023-12-28T09:31:27;10.50;99.90
51841;DHT22;37888;53.246;6.658;2023-12-28T09:33:52;10.60;99.90
51841;DHT22;37888;53.246;6.658;2023-12-28T09:36:18;10.60;99.90
51841;DHT22;37888;53.246;6.658;2023-12-28T09:41:11;10.60;99.90
51841;DHT22;37888;53.246;6.658;2023-12-28T09:43:41;10.60;99.90
51841;DHT22;37888;53.246;6.658;2023-12-28T09:48:36;10.60;99.90
51841;DHT22;37888;53.246;6.658;2023-12-28T09:51:03;10.00;99.90
51841;DHT22;37888;53.246;6.658;2023-12-28T09:53:30;10.80;99.90
51841;DHT22;37888;53.246;6.658;2023-12-28T09:55:55;10.80;99.90
51841;DHT22;37888;53.246;6.658;2023-12-28T09:58:21;10.50;99.90
51841;DHT22;37888;53.246;6.658;2023-12-28T10:00:48;10.30;99.90
51841;DHT22;37888;53.246;6.658;2023-12-28T10:03:15;10.60;99.90
51841;DHT22;37888;53.246;6.658;2023-12-28T10:05:41;10.50;99.90
51841;DHT22;37888;53.246;6.658;2023-12-28T10:08:07;10.60;99.90
51841;DHT22;37888;53.246;6.658;2023-12-28T10:10:33;10.90;99.90
51841;DHT22;37888;53.246;6.658;2023-12-28T10:12:59;10.40;99.90
51841;DHT22;37888;53.246;6.658;2023-12-28T10:15:25;10.50;99.90
51841;DHT22;37888;53.246;6.658;2023-12-28T10:17:53;10.30;99.90
51841;DHT22;37888;53.246;6.658;2023-12-28T10:20:19;11.50;99.90
51841;DHT22;37888;53.246;6.658;2023-12-28T10:22:45;9.40;99.90
51841;DHT22;37888;53.246;6.658;2023-12-28T10:25:11;10.60;99.90
51841;DHT22;37888;53.246;6.658;2023-12-28T10:27:40;11.50;99.90
51841;DHT22;37888;53.246;6.658;2023-12-28T10:30:08;10.60;99.90
51841;DHT22;37888;53.246;6.658;2023-12-28T10:32:34;10.90;99.90
51841;DHT22;37888;53.246;6.658;2023-12-28T10:34:59;10.50;99.90
51841;DHT22;37888;53.246;6.658;2023-12-28T10:37:26;10.60;99.90
51841;DHT22;37888;53.246;6.658;2023-12-28T10:39:52;10.50;99.90
51841;DHT22;37888;53.246;6.658;2023-12-28T10:42:29;10.60;99.90
51841;DHT22;37888;53.246;6.658;2023-12-28T10:44:59;10.70;99.90
51841;DHT22;37888;53.246;6.658;2023-12-28T10:47:27;10.70;99.90
51841;DHT22;37888;53.246;6.658;2023-12-28T10:49:53;10.60;99.90
51841;DHT22;37888;53.246;6.658;2023-12-28T10:52:20;10.50;99.90
51841;DHT22;37888;53.246;6.658;2023-12-28T10:58:02;10.60;99.90
51841;DHT22;37888;53.246;6.658;2023-12-28T11:00:25;10.60;99.90
51841;DHT22;37888;53.246;6.658;2023-12-28T11:02:55;10.60;99.90
51841;DHT22;37888;53.246;6.658;2023-12-28T11:05:22;10.60;99.90
51841;DHT22;37888;53.246;6.658;2023-12-28T11:07:48;10.60;99.90
51841;DHT22;37888;53.246;6.658;2023-12-28T11:10:15;10.60;99.90
51841;DHT22;37888;53.246;6.658;2023-12-28T11:12:41;10.60;99.90
51841;DHT22;37888;53.246;6.658;2023-12-28T11:15:08;10.60;99.90
51841;DHT22;37888;53.246;6.658;2023-12-28T11:17:35;10.60;99.90
51841;DHT22;37888;53.246;6.658;2023-12-28T11:20:01;10.60;99.90
51841;DHT22;37888;53.246;6.658;2023-12-28T11:22:28;10.60;99.90
51841;DHT22;37888;53.246;6.658;2023-12-28T11:24:55;10.60;99.90
51841;DHT22;37888;53.246;6.658;2023-12-28T11:27:21;10.80;99.90
51841;DHT22;37888;53.246;6.658;2023-12-28T11:29:47;10.60;99.90
51841;DHT22;37888;53.246;6.658;2023-12-28T11:32:14;10.60;99.90
51841;DHT22;37888;53.246;6.658;2023-12-28T11:37:07;10.70;99.90
51841;DHT22;37888;53.246;6.658;2023-12-28T11:39:35;10.70;99.90
51841;DHT22;37888;53.246;6.658;2023-12-28T11:42:03;10.70;99.90
51841;DHT22;37888;53.246;6.658;2023-12-28T11:44:40;10.80;99.90
51841;DHT22;37888;53.246;6.658;2023-12-28T11:47:10;10.80;99.90
51841;DHT22;37888;53.246;6.658;2023-12-28T11:49:37;10.80;99.90
51841;DHT22;37888;53.246;6.658;2023-12-28T11:52:06;10.80;99.90
51841;DHT22;37888;53.246;6.658;2023-12-28T11:54:32;10.80;99.90
51841;DHT22;37888;53.246;6.658;2023-12-28T11:56:57;10.70;99.90
51841;DHT22;37888;53.246;6.658;2023-12-28T11:59:23;10.70;99.90
51841;DHT22;37888;53.246;6.658;2023-12-28T12:01:52;10.70;99.90
51841;DHT22;37888;53.246;6.658;2023-12-28T12:04:21;10.70;99.90
51841;DHT22;37888;53.246;6.658;2023-12-28T12:06:47;10.60;99.90
51841;DHT22;37888;53.246;6.658;2023-12-28T12:09:13;10.60;99.90
51841;DHT22;37888;53.246;6.658;2023-12-28T12:11:39;10.70;99.90
51841;DHT22;37888;53.246;6.658;2023-12-28T12:14:08;10.70;99.90
51841;DHT22;37888;53.246;6.658;2023-12-28T12:16:38;10.60;99.90
51841;DHT22;37888;53.246;6.658;2023-12-28T12:19:04;10.60;99.90
51841;DHT22;37888;53.246;6.658;2023-12-28T12:21:41;10.60;99.90
51841;DHT22;37888;53.246;6.658;2023-12-28T12:24:09;10.50;99.90
51841;DHT22;37888;53.246;6.658;2023-12-28T12:26:35;10.50;99.90
51841;DHT22;37888;53.246;6.658;2023-12-28T12:29:01;10.60;99.90
51841;DHT22;37888;53.246;6.658;2023-12-28T12:31:27;10.50;99.90
51841;DHT22;37888;53.246;6.658;2023-12-28T12:33:53;10.50;99.90
51841;DHT22;37888;53.246;6.658;2023-12-28T12:36:18;10.50;99.90
51841;DHT22;37888;53.246;6.658;2023-12-28T12:38:44;10.50;99.90
51841;DHT22;37888;53.246;6.658;2023-12-28T12:41:10;10.40;99.90
51841;DHT22;37888;53.246;6.658;2023-12-28T12:43:37;10.50;99.90
51841;DHT22;37888;53.246;6.658;2023-12-28T12:46:06;10.50;99.90
51841;DHT22;37888;53.246;6.658;2023-12-28T12:48:31;10.50;99.90
51841;DHT22;37888;53.246;6.658;2023-12-28T12:50:57;10.50;99.90
51841;DHT22;37888;53.246;6.658;2023-12-28T12:53:22;10.50;99.90
51841;DHT22;37888;53.246;6.658;2023-12-28T12:55:48;10.50;99.90
51841;DHT22;37888;53.246;6.658;2023-12-28T12:58:19;10.50;99.90
51841;DHT22;37888;53.246;6.658;2023-12-28T13:00:46;10.50;99.90
51841;DHT22;37888;53.246;6.658;2023-12-28T13:03:12;10.60;99.90
51841;DHT22;37888;53.246;6.658;2023-12-28T13:05:37;10.60;99.90
51841;DHT22;37888;53.246;6.658;2023-12-28T13:08:04;10.60;99.90
51841;DHT22;37888;53.246;6.658;2023-12-28T13:10:30;10.60;99.90
51841;DHT22;37888;53.246;6.658;2023-12-28T13:12:56;10.60;99.90
51841;DHT22;37888;53.246;6.658;2023-12-28T13:15:21;10.60;99.90
51841;DHT22;37888;53.246;6.658;2023-12-28T13:17:47;10.60;99.90
51841;DHT22;37888;53.246;6.658;2023-12-28T13:20:12;10.60;99.90
51841;DHT22;37888;53.246;6.658;2023-12-28T13:22:38;10.60;99.90
51841;DHT22;37888;53.246;6.658;2023-12-28T13:25:04;10.60;99.90
51841;DHT22;37888;53.246;6.658;2023-12-28T13:27:29;10.50;99.90
51841;DHT22;37888;53.246;6.658;2023-12-28T13:29:56;10.50;99.90
51841;DHT22;37888;53.246;6.658;2023-12-28T13:32:22;10.50;99.90
51841;DHT22;37888;53.246;6.658;2023-12-28T13:34:48;10.50;99.90
51841;DHT22;37888;53.246;6.658;2023-12-28T13:37:16;10.50;99.90
51841;DHT22;37888;53.246;6.658;2023-12-28T13:39:42;10.50;99.90
51841;DHT22;37888;53.246;6.658;2023-12-28T13:42:07;10.50;99.90
51841;DHT22;37888;53.246;6.658;2023-12-28T13:44:33;10.50;99.90
51841;DHT22;37888;53.246;6.658;2023-12-28T13:46:59;10.50;99.90
51841;DHT22;37888;53.246;6.658;2023-12-28T13:49:24;10.50;99.90
51841;DHT22;37888;53.246;6.658;2023-12-28T13:51:51;10.40;99.90
51841;DHT22;37888;53.246;6.658;2023-12-28T13:54:17;10.50;99.90
51841;DHT22;37888;53.246;6.658;2023-12-28T13:56:45;10.50;99.90
51841;DHT22;37888;53.246;6.658;2023-12-28T13:59:10;10.50;99.90
51841;DHT22;37888;53.246;6.658;2023-12-28T14:01:36;10.40;99.90
51841;DHT22;37888;53.246;6.658;2023-12-28T14:04:02;10.40;99.90
51841;DHT22;37888;53.246;6.658;2023-12-28T14:06:28;10.40;99.90
51841;DHT22;37888;53.246;6.658;2023-12-28T14:08:54;10.30;99.90
51841;DHT22;37888;53.246;6.658;2023-12-28T14:11:20;10.30;99.90
51841;DHT22;37888;53.246;6.658;2023-12-28T14:13:45;10.30;99.90
51841;DHT22;37888;53.246;6.658;2023-12-28T14:16:11;10.30;99.90
51841;DHT22;37888;53.246;6.658;2023-12-28T14:18:37;10.30;99.90
51841;DHT22;37888;53.246;6.658;2023-12-28T14:21:07;10.30;99.90
51841;DHT22;37888;53.246;6.658;2023-12-28T14:23:34;9.70;99.90
51841;DHT22;37888;53.246;6.658;2023-12-28T14:26:01;10.30;99.90
51841;DHT22;37888;53.246;6.658;2023-12-28T14:28:27;10.20;99.90
51841;DHT22;37888;53.246;6.658;2023-12-28T14:30:57;10.20;99.90
51841;DHT22;37888;53.246;6.658;2023-12-28T14:33:22;10.20;99.90
51841;DHT22;37888;53.246;6.658;2023-12-28T14:35:49;10.20;99.90
51841;DHT22;37888;53.246;6.658;2023-12-28T14:38:14;10.20;99.90
51841;DHT22;37888;53.246;6.658;2023-12-28T14:40:40;10.10;99.90
51841;DHT22;37888;53.246;6.658;2023-12-28T14:43:06;10.10;99.90
51841;DHT22;37888;53.246;6.658;2023-12-28T14:45:31;10.00;99.90
51841;DHT22;37888;53.246;6.658;2023-12-28T14:47:57;10.00;99.90
51841;DHT22;37888;53.246;6.658;2023-12-28T14:50:23;9.90;99.90
51841;DHT22;37888;53.246;6.658;2023-12-28T14:52:48;9.80;99.90
51841;DHT22;37888;53.246;6.658;2023-12-28T14:55:14;9.70;99.90
51841;DHT22;37888;53.246;6.658;2023-12-28T14:57:40;9.70;99.90
51841;DHT22;37888;53.246;6.658;2023-12-28T15:00:06;9.70;99.90
51841;DHT22;37888;53.246;6.658;2023-12-28T15:02:31;9.60;99.90
51841;DHT22;37888;53.246;6.658;2023-12-28T15:04:57;9.60;99.90
51841;DHT22;37888;53.246;6.658;2023-12-28T15:07:25;9.60;99.90
51841;DHT22;37888;53.246;6.658;2023-12-28T15:09:51;9.50;99.90
51841;DHT22;37888;53.246;6.658;2023-12-28T15:12:21;9.50;99.90
51841;DHT22;37888;53.246;6.658;2023-12-28T15:14:47;9.50;99.90
51841;DHT22;37888;53.246;6.658;2023-12-28T15:17:13;9.40;99.90
51841;DHT22;37888;53.246;6.658;2023-12-28T15:19:40;9.40;99.90
51841;DHT22;37888;53.246;6.658;2023-12-28T15:22:14;9.40;99.90
51841;DHT22;37888;53.246;6.658;2023-12-28T15:24:43;9.40;99.90
51841;DHT22;37888;53.246;6.658;2023-12-28T15:27:09;9.40;99.90
51841;DHT22;37888;53.246;6.658;2023-12-28T15:29:35;9.30;99.90
51841;DHT22;37888;53.246;6.658;2023-12-28T15:32:03;9.30;99.90
51841;DHT22;37888;53.246;6.658;2023-12-28T15:34:29;9.30;99.90
51841;DHT22;37888;53.246;6.658;2023-12-28T15:36:55;10.00;99.90
51841;DHT22;37888;53.246;6.658;2023-12-28T15:39:20;9.30;99.90
51841;DHT22;37888;53.246;6.658;2023-12-28T15:41:46;9.30;99.90
51841;DHT22;37888;53.246;6.658;2023-12-28T15:44:12;9.20;99.90
51841;DHT22;37888;53.246;6.658;2023-12-28T15:46:39;9.30;99.90
51841;DHT22;37888;53.246;6.658;2023-12-28T15:49:05;7.80;99.90
51841;DHT22;37888;53.246;6.658;2023-12-28T15:51:31;9.20;99.90
51841;DHT22;37888;53.246;6.658;2023-12-28T15:53:57;9.30;99.90
51841;DHT22;37888;53.246;6.658;2023-12-28T15:56:22;9.30;99.90
51841;DHT22;37888;53.246;6.658;2023-12-28T15:58:48;9.30;99.90
51841;DHT22;37888;53.246;6.658;2023-12-28T16:01:14;9.40;99.90